sensor_id;sensor_type;location;lat;lon;timestamp;P1;durP1;ratioP1;P2;durP2;ratioP2
32080;SDS011;18593;51.426;7.030;2023-12-28T00:00:02;5.78;;;2.65;;
32080;SDS011;18593;51.426;7.030;2023-12-28T00:02:33;5.18;;;2.40;;
32080;SDS011;18593;51.426;7.030;2023-12-28T00:05:00;6.35;;;2.80;;
32080;SDS011;18593;51.426;7.030;2023-12-28T00:07:30;6.03;;;2.50;;
32080;SDS011;18593;51.426;7.030;2023-12-28T00:09:58;4.63;;;2.40;;
32080;SDS011;18593;51.426;7.030;2023-12-28T00:12:25;4.47;;;2.20;;
32080;SDS011;18593;51.426;7.030;2023-12-28T00:14:53;6.05;;;2.33;;
32080;SDS011;18593;51.426;7.030;2023-12-28T00:17:20;6.13;;;2.80;;
32080;SDS011;18593;51.426;7.030;2023-12-28T00:19:47;6.15;;;2.55;;
32080;SDS011;18593;51.426;7.030;2023-12-28T00:22:15;5.50;;;2.70;;
32080;SDS011;18593;51.426;7.030;2023-12-28T00:24:44;5.80;;;2.60;;
32080;SDS011;18593;51.426;7.030;2023-12-28T00:27:11;5.88;;;2.70;;
32080;SDS011;18593;51.426;7.030;2023-12-28T00:29:39;7.07;;;2.80;;
32080;SDS011;18593;51.426;7.030;2023-12-28T00:32:08;4.05;;;2.38;;
32080;SDS011;18593;51.426;7.030;2023-12-28T00:34:35;6.60;;;3.05;;
32080;SDS011;18593;51.426;7.030;2023-12-28T00:37:04;9.32;;;3.42;;
32080;SDS011;18593;51.426;7.030;2023-12-28T00:39:32;4.93;;;2.70;;
32080;SDS011;18593;51.426;7.030;2023-12-28T00:42:03;8.00;;;3.17;;
32080;SDS011;18593;51.426;7.030;2023-12-28T00:44:32;6.50;;;2.70;;
32080;SDS011;18593;51.426;7.030;2023-12-28T00:46:59;7.18;;;2.75;;
32080;SDS011;18593;51.426;7.030;2023-12-28T00:49:27;7.88;;;2.70;;
32080;SDS011;18593;51.426;7.030;2023-12-28T00:51:54;6.97;;;2.63;;
32080;SDS011;18593;51.426;7.030;2023-12-28T00:54:22;8.48;;;2.60;;
32080;SDS011;18593;51.426;7.030;2023-12-28T00:56:51;4.97;;;2.45;;
32080;SDS011;18593;51.426;7.030;2023-12-28T00:59:20;4.93;;;2.30;;
32080;SDS011;18593;51.426;7.030;2023-12-28T01:01:48;5.18;;;2.38;;
32080;SDS011;18593;51.426;7.030;2023-12-28T01:04:15;5.10;;;2.47;;
32080;SDS011;18593;51.426;7.030;2023-12-28T01:06:43;4.68;;;2.33;;
32080;SDS011;18593;51.426;7.030;2023-12-28T01:09:11;4.20;;;2.05;;
32080;SDS011;18593;51.426;7.030;2023-12-28T01:11:38;7.05;;;2.72;;
32080;SDS011;18593;51.426;7.030;2023-12-28T01:14:06;5.47;;;2.33;;
32080;SDS011;18593;51.426;7.030;2023-12-28T01:16:35;3.88;;;1.98;;
32080;SDS011;18593;51.426;7.030;2023-12-28T01:19:04;6.47;;;2.40;;
32080;SDS011;18593;51.426;7.030;2023-12-28T01:21:32;4.22;;;2.33;;
32080;SDS011;18593;51.426;7.030;2023-12-28T01:24:00;5.75;;;2.50;;
32080;SDS011;18593;51.426;7.030;2023-12-28T01:26:26;6.50;;;2.72;;
32080;SDS011;18593;51.426;7.030;2023-12-28T01:28:55;5.63;;;2.35;;
32080;SDS011;18593;51.426;7.030;2023-12-28T01:31:23;5.35;;;2.40;;
32080;SDS011;18593;51.426;7.030;2023-12-28T01:33:52;7.63;;;2.42;;
32080;SDS011;18593;51.426;7.030;2023-12-28T01:36:20;7.00;;;2.83;;
32080;SDS011;18593;51.426;7.030;2023-12-28T01:38:48;5.82;;;2.45;;
32080;SDS011;18593;51.426;7.030;2023-12-28T01:41:16;4.85;;;2.53;;
32080;SDS011;18593;51.426;7.030;2023-12-28T01:43:43;5.70;;;2.30;;
32080;SDS011;18593;51.426;7.030;2023-12-28T01:46:12;4.50;;;2.17;;
32080;SDS011;18593;51.426;7.030;2023-12-28T01:48:43;5.07;;;2.60;;
32080;SDS011;18593;51.426;7.030;2023-12-28T01:51:16;5.13;;;2.67;;
32080;SDS011;18593;51.426;7.030;2023-12-28T01:53:45;8.30;;;2.53;;
32080;SDS011;18593;51.426;7.030;2023-12-28T01:56:18;6.45;;;2.83;;
32080;SDS011;18593;51.426;7.030;2023-12-28T01:58:46;8.65;;;2.67;;
32080;SDS011;18593;51.426;7.030;2023-12-28T02:01:16;4.20;;;2.08;;
32080;SDS011;18593;51.426;7.030;2023-12-28T02:03:44;6.30;;;2.63;;
32080;SDS011;18593;51.426;7.030;2023-12-28T02:06:11;4.70;;;2.40;;
32080;SDS011;18593;51.426;7.030;2023-12-28T02:08:44;6.28;;;2.42;;
32080;SDS011;18593;51.426;7.030;2023-12-28T02:11:11;6.53;;;2.38;;
32080;SDS011;18593;51.426;7.030;2023-12-28T02:13:39;5.90;;;2.55;;
32080;SDS011;18593;51.426;7.030;2023-12-28T02:16:11;6.03;;;2.38;;
32080;SDS011;18593;51.426;7.030;2023-12-28T02:18:44;6.30;;;2.42;;
32080;SDS011;18593;51.426;7.030;2023-12-28T02:21:17;5.35;;;2.60;;
32080;SDS011;18593;51.426;7.030;2023-12-28T02:23:47;5.70;;;2.47;;
32080;SDS011;18593;51.426;7.030;2023-12-28T02:26:16;5.18;;;2.40;;
32080;SDS011;18593;51.426;7.030;2023-12-28T02:28:43;5.50;;;2.88;;
32080;SDS011;18593;51.426;7.030;2023-12-28T02:31:14;6.72;;;2.70;;
32080;SDS011;18593;51.426;7.030;2023-12-28T02:33:48;4.68;;;2.15;;
32080;SDS011;18593;51.426;7.030;2023-12-28T02:36:24;5.68;;;2.75;;
32080;SDS011;18593;51.426;7.030;2023-12-28T02:38:53;5.40;;;2.70;;
32080;SDS011;18593;51.426;7.030;2023-12-28T02:43:54;5.65;;;2.53;;
32080;SDS011;18593;51.426;7.030;2023-12-28T02:46:22;6.05;;;2.42;;
32080;SDS011;18593;51.426;7.030;2023-12-28T02:48:49;5.63;;;2.60;;
32080;SDS011;18593;51.426;7.030;2023-12-28T02:51:18;7.15;;;2.75;;
32080;SDS011;18593;51.426;7.030;2023-12-28T02:53:45;5.00;;;2.38;;
32080;SDS011;18593;51.426;7.030;2023-12-28T02:56:13;6.10;;;2.45;;
32080;SDS011;18593;51.426;7.030;2023-12-28T02:58:42;6.45;;;2.47;;
32080;SDS011;18593;51.426;7.030;2023-12-28T03:01:09;5.55;;;2.53;;
32080;SDS011;18593;51.426;7.030;2023-12-28T03:03:37;6.70;;;2.58;;
32080;SDS011;18593;51.426;7.030;2023-12-28T03:06:04;5.53;;;2.60;;
32080;SDS011;18593;51.426;7.030;2023-12-28T03:08:32;5.13;;;2.60;;
32080;SDS011;18593;51.426;7.030;2023-12-28T03:10:59;5.50;;;2.60;;
32080;SDS011;18593;51.426;7.030;2023-12-28T03:13:26;7.55;;;2.80;;
32080;SDS011;18593;51.426;7.030;2023-12-28T03:15:55;7.07;;;3.10;;
32080;SDS011;18593;51.426;7.030;2023-12-28T03:18:23;4.97;;;2.55;;
32080;SDS011;18593;51.426;7.030;2023-12-28T03:20:51;4.95;;;2.70;;
32080;SDS011;18593;51.426;7.030;2023-12-28T03:23:22;4.83;;;2.60;;
32080;SDS011;18593;51.426;7.030;2023-12-28T03:25:49;5.88;;;2.70;;
32080;SDS011;18593;51.426;7.030;2023-12-28T03:28:17;5.53;;;2.42;;
32080;SDS011;18593;51.426;7.030;2023-12-28T03:30:45;6.60;;;2.58;;
32080;SDS011;18593;51.426;7.030;2023-12-28T03:33:14;10.38;;;3.22;;
32080;SDS011;18593;51.426;7.030;2023-12-28T03:35:42;7.20;;;2.85;;
32080;SDS011;18593;51.426;7.030;2023-12-28T03:38:09;6.95;;;2.88;;
32080;SDS011;18593;51.426;7.030;2023-12-28T03:40:36;7.72;;;2.80;;
32080;SDS011;18593;51.426;7.030;2023-12-28T03:43:04;8.20;;;3.00;;
32080;SDS011;18593;51.426;7.030;2023-12-28T03:45:32;7.55;;;3.03;;
32080;SDS011;18593;51.426;7.030;2023-12-28T03:47:59;5.88;;;2.70;;
32080;SDS011;18593;51.426;7.030;2023-12-28T03:50:28;7.38;;;3.40;;
32080;SDS011;18593;51.426;7.030;2023-12-28T03:52:55;8.00;;;2.75;;
32080;SDS011;18593;51.426;7.030;2023-12-28T03:55:23;8.82;;;2.70;;
32080;SDS011;18593;51.426;7.030;2023-12-28T03:57:53;7.50;;;2.92;;
32080;SDS011;18593;51.426;7.030;2023-12-28T04:00:21;6.43;;;2.70;;
32080;SDS011;18593;51.426;7.030;2023-12-28T04:02:50;7.03;;;2.88;;
32080;SDS011;18593;51.426;7.030;2023-12-28T04:05:18;8.20;;;3.08;;
32080;SDS011;18593;51.426;7.030;2023-12-28T04:07:47;5.35;;;2.80;;
32080;SDS011;18593;51.426;7.030;2023-12-28T04:10:15;9.52;;;3.13;;
32080;SDS011;18593;51.426;7.030;2023-12-28T04:12:59;7.55;;;2.90;;
32080;SDS011;18593;51.426;7.030;2023-12-28T04:15:28;6.75;;;2.95;;
32080;SDS011;18593;51.426;7.030;2023-12-28T04:17:57;9.57;;;3.22;;
32080;SDS011;18593;51.426;7.030;2023-12-28T04:20:24;5.97;;;2.90;;
32080;SDS011;18593;51.426;7.030;2023-12-28T04:22:53;5.93;;;2.65;;
32080;SDS011;18593;51.426;7.030;2023-12-28T04:25:21;6.53;;;2.50;;
32080;SDS011;18593;51.426;7.030;2023-12-28T04:27:48;7.30;;;2.85;;
32080;SDS011;18593;51.426;7.030;2023-12-28T04:30:16;5.22;;;2.40;;
32080;SDS011;18593;51.426;7.030;2023-12-28T04:32:44;5.97;;;2.40;;
32080;SDS011;18593;51.426;7.030;2023-12-28T04:35:11;6.07;;;2.65;;
32080;SDS011;18593;51.426;7.030;2023-12-28T04:37:39;8.20;;;2.90;;
32080;SDS011;18593;51.426;7.030;2023-12-28T04:40:09;4.90;;;2.58;;
32080;SDS011;18593;51.426;7.030;2023-12-28T04:42:39;5.63;;;2.60;;
32080;SDS011;18593;51.426;7.030;2023-12-28T04:45:08;6.35;;;2.50;;
32080;SDS011;18593;51.426;7.030;2023-12-28T04:47:36;8.63;;;2.55;;
32080;SDS011;18593;51.426;7.030;2023-12-28T04:50:04;5.47;;;2.40;;
32080;SDS011;18593;51.426;7.030;2023-12-28T04:52:33;6.18;;;2.65;;
32080;SDS011;18593;51.426;7.030;2023-12-28T04:55:01;8.15;;;2.83;;
32080;SDS011;18593;51.426;7.030;2023-12-28T04:57:30;6.18;;;2.35;;
32080;SDS011;18593;51.426;7.030;2023-12-28T04:59:57;10.07;;;3.33;;
32080;SDS011;18593;51.426;7.030;2023-12-28T05:02:25;5.82;;;2.40;;
32080;SDS011;18593;51.426;7.030;2023-12-28T05:04:54;7.90;;;2.38;;
32080;SDS011;18593;51.426;7.030;2023-12-28T05:07:21;6.93;;;2.22;;
32080;SDS011;18593;51.426;7.030;2023-12-28T05:09:50;6.35;;;2.55;;
32080;SDS011;18593;51.426;7.030;2023-12-28T05:12:17;6.47;;;2.50;;
32080;SDS011;18593;51.426;7.030;2023-12-28T05:14:46;6.63;;;2.40;;
32080;SDS011;18593;51.426;7.030;2023-12-28T05:17:14;6.70;;;2.13;;
32080;SDS011;18593;51.426;7.030;2023-12-28T05:19:41;6.63;;;2.17;;
32080;SDS011;18593;51.426;7.030;2023-12-28T05:22:09;5.93;;;2.30;;
32080;SDS011;18593;51.426;7.030;2023-12-28T05:24:37;6.03;;;2.10;;
32080;SDS011;18593;51.426;7.030;2023-12-28T05:27:05;7.80;;;2.25;;
32080;SDS011;18593;51.426;7.030;2023-12-28T05:29:32;7.35;;;2.65;;
32080;SDS011;18593;51.426;7.030;2023-12-28T05:32:01;7.25;;;2.45;;
32080;SDS011;18593;51.426;7.030;2023-12-28T05:34:28;6.53;;;2.28;;
32080;SDS011;18593;51.426;7.030;2023-12-28T05:36:56;8.38;;;2.25;;
32080;SDS011;18593;51.426;7.030;2023-12-28T05:39:26;4.97;;;1.90;;
32080;SDS011;18593;51.426;7.030;2023-12-28T05:41:53;8.25;;;2.67;;
32080;SDS011;18593;51.426;7.030;2023-12-28T05:44:21;5.28;;;2.33;;
32080;SDS011;18593;51.426;7.030;2023-12-28T05:46:49;6.13;;;2.22;;
32080;SDS011;18593;51.426;7.030;2023-12-28T05:49:19;7.60;;;2.08;;
32080;SDS011;18593;51.426;7.030;2023-12-28T05:51:46;5.43;;;2.28;;
32080;SDS011;18593;51.426;7.030;2023-12-28T05:54:13;7.50;;;2.30;;
32080;SDS011;18593;51.426;7.030;2023-12-28T05:56:41;6.75;;;2.10;;
32080;SDS011;18593;51.426;7.030;2023-12-28T05:59:08;5.47;;;2.08;;
32080;SDS011;18593;51.426;7.030;2023-12-28T06:01:41;9.15;;;2.45;;
32080;SDS011;18593;51.426;7.030;2023-12-28T06:04:09;8.73;;;2.10;;
32080;SDS011;18593;51.426;7.030;2023-12-28T06:06:38;7.85;;;2.55;;
32080;SDS011;18593;51.426;7.030;2023-12-28T06:09:06;6.60;;;2.28;;
32080;SDS011;18593;51.426;7.030;2023-12-28T06:11:33;10.75;;;2.40;;
32080;SDS011;18593;51.426;7.030;2023-12-28T06:14:01;7.00;;;2.17;;
32080;SDS011;18593;51.426;7.030;2023-12-28T06:16:28;4.43;;;1.90;;
32080;SDS011;18593;51.426;7.030;2023-12-28T06:18:58;6.82;;;2.20;;
32080;SDS011;18593;51.426;7.030;2023-12-28T06:21:26;7.00;;;2.20;;
32080;SDS011;18593;51.426;7.030;2023-12-28T06:23:57;9.23;;;2.30;;
32080;SDS011;18593;51.426;7.030;2023-12-28T06:26:24;6.78;;;2.20;;
32080;SDS011;18593;51.426;7.030;2023-12-28T06:28:51;7.70;;;2.53;;
32080;SDS011;18593;51.426;7.030;2023-12-28T06:31:18;12.73;;;2.60;;
32080;SDS011;18593;51.426;7.030;2023-12-28T06:33:46;7.32;;;2.10;;
32080;SDS011;18593;51.426;7.030;2023-12-28T06:36:13;5.72;;;2.22;;
32080;SDS011;18593;51.426;7.030;2023-12-28T06:38:41;8.38;;;2.08;;
32080;SDS011;18593;51.426;7.030;2023-12-28T06:41:12;8.98;;;2.38;;
32080;SDS011;18593;51.426;7.030;2023-12-28T06:43:40;11.73;;;2.42;;
32080;SDS011;18593;51.426;7.030;2023-12-28T06:46:08;10.15;;;2.47;;
32080;SDS011;18593;51.426;7.030;2023-12-28T06:48:35;5.72;;;2.30;;
32080;SDS011;18593;51.426;7.030;2023-12-28T06:51:05;8.55;;;2.30;;
32080;SDS011;18593;51.426;7.030;2023-12-28T06:53:34;11.25;;;2.40;;
32080;SDS011;18593;51.426;7.030;2023-12-28T06:56:01;7.00;;;2.22;;
32080;SDS011;18593;51.426;7.030;2023-12-28T06:58:31;8.25;;;2.42;;
32080;SDS011;18593;51.426;7.030;2023-12-28T07:01:02;8.70;;;2.72;;
32080;SDS011;18593;51.426;7.030;2023-12-28T07:03:30;9.00;;;2.53;;
32080;SDS011;18593;51.426;7.030;2023-12-28T07:05:58;7.15;;;2.00;;
32080;SDS011;18593;51.426;7.030;2023-12-28T07:08:25;7.60;;;2.10;;
32080;SDS011;18593;51.426;7.030;2023-12-28T07:10:53;7.35;;;2.20;;
32080;SDS011;18593;51.426;7.030;2023-12-28T07:13:21;8.82;;;2.08;;
32080;SDS011;18593;51.426;7.030;2023-12-28T07:15:50;8.65;;;2.20;;
32080;SDS011;18593;51.426;7.030;2023-12-28T07:18:19;7.88;;;2.05;;
32080;SDS011;18593;51.426;7.030;2023-12-28T07:20:47;5.68;;;2.25;;
32080;SDS011;18593;51.426;7.030;2023-12-28T07:23:15;7.22;;;1.90;;
32080;SDS011;18593;51.426;7.030;2023-12-28T07:25:42;7.85;;;2.08;;
32080;SDS011;18593;51.426;7.030;2023-12-28T07:28:10;9.65;;;2.60;;
32080;SDS011;18593;51.426;7.030;2023-12-28T07:30:37;8.95;;;2.22;;
32080;SDS011;18593;51.426;7.030;2023-12-28T07:33:08;10.80;;;2.83;;
32080;SDS011;18593;51.426;7.030;2023-12-28T07:35:35;8.63;;;2.50;;
32080;SDS011;18593;51.426;7.030;2023-12-28T07:38:04;8.95;;;2.42;;
32080;SDS011;18593;51.426;7.030;2023-12-28T07:40:31;8.98;;;2.10;;
32080;SDS011;18593;51.426;7.030;2023-12-28T07:42:58;8.15;;;2.03;;
32080;SDS011;18593;51.426;7.030;2023-12-28T07:45:27;14.68;;;2.40;;
32080;SDS011;18593;51.426;7.030;2023-12-28T07:47:55;7.38;;;2.17;;
32080;SDS011;18593;51.426;7.030;2023-12-28T07:50:24;10.48;;;2.55;;
32080;SDS011;18593;51.426;7.030;2023-12-28T07:52:52;9.95;;;2.45;;
32080;SDS011;18593;51.426;7.030;2023-12-28T07:55:19;8.48;;;2.35;;
32080;SDS011;18593;51.426;7.030;2023-12-28T07:57:47;9.00;;;2.38;;
32080;SDS011;18593;51.426;7.030;2023-12-28T08:00:15;8.10;;;2.03;;
32080;SDS011;18593;51.426;7.030;2023-12-28T08:02:43;11.10;;;2.80;;
32080;SDS011;18593;51.426;7.030;2023-12-28T08:05:11;11.60;;;2.50;;
32080;SDS011;18593;51.426;7.030;2023-12-28T08:07:40;8.30;;;2.20;;
32080;SDS011;18593;51.426;7.030;2023-12-28T08:10:07;10.13;;;2.28;;
32080;SDS011;18593;51.426;7.030;2023-12-28T08:12:36;12.82;;;2.60;;
32080;SDS011;18593;51.426;7.030;2023-12-28T08:15:04;8.90;;;2.38;;
32080;SDS011;18593;51.426;7.030;2023-12-28T08:17:33;11.02;;;2.45;;
32080;SDS011;18593;51.426;7.030;2023-12-28T08:20:01;13.18;;;2.35;;
32080;SDS011;18593;51.426;7.030;2023-12-28T08:22:28;14.55;;;2.90;;
32080;SDS011;18593;51.426;7.030;2023-12-28T08:24:57;12.65;;;2.63;;
32080;SDS011;18593;51.426;7.030;2023-12-28T08:27:26;11.63;;;2.20;;
32080;SDS011;18593;51.426;7.030;2023-12-28T08:29:54;11.95;;;2.90;;
32080;SDS011;18593;51.426;7.030;2023-12-28T08:32:21;12.30;;;2.35;;
32080;SDS011;18593;51.426;7.030;2023-12-28T08:34:51;11.23;;;2.75;;
32080;SDS011;18593;51.426;7.030;2023-12-28T08:37:18;9.40;;;2.60;;
32080;SDS011;18593;51.426;7.030;2023-12-28T08:39:47;10.48;;;2.55;;
32080;SDS011;18593;51.426;7.030;2023-12-28T08:42:16;10.52;;;2.28;;
32080;SDS011;18593;51.426;7.030;2023-12-28T08:44:43;12.98;;;2.90;;
32080;SDS011;18593;51.426;7.030;2023-12-28T08:47:13;9.80;;;2.35;;
32080;SDS011;18593;51.426;7.030;2023-12-28T08:49:41;9.38;;;2.15;;
32080;SDS011;18593;51.426;7.030;2023-12-28T08:52:09;13.20;;;2.83;;
32080;SDS011;18593;51.426;7.030;2023-12-28T08:54:37;11.70;;;2.55;;
32080;SDS011;18593;51.426;7.030;2023-12-28T08:57:04;11.70;;;2.83;;
32080;SDS011;18593;51.426;7.030;2023-12-28T08:59:36;8.63;;;2.15;;
32080;SDS011;18593;51.426;7.030;2023-12-28T09:02:04;9.98;;;2.13;;
32080;SDS011;18593;51.426;7.030;2023-12-28T09:04:32;7.35;;;2.00;;
32080;SDS011;18593;51.426;7.030;2023-12-28T09:07:00;6.40;;;2.15;;
32080;SDS011;18593;51.426;7.030;2023-12-28T09:09:27;10.90;;;2.53;;
32080;SDS011;18593;51.426;7.030;2023-12-28T09:11:56;10.63;;;2.53;;
32080;SDS011;18593;51.426;7.030;2023-12-28T09:14:23;13.48;;;3.05;;
32080;SDS011;18593;51.426;7.030;2023-12-28T09:16:52;12.68;;;2.42;;
32080;SDS011;18593;51.426;7.030;2023-12-28T09:19:20;11.93;;;2.42;;
32080;SDS011;18593;51.426;7.030;2023-12-28T09:21:48;10.82;;;2.13;;
32080;SDS011;18593;51.426;7.030;2023-12-28T09:24:18;11.30;;;2.53;;
32080;SDS011;18593;51.426;7.030;2023-12-28T09:26:45;14.73;;;2.45;;
32080;SDS011;18593;51.426;7.030;2023-12-28T09:29:13;15.90;;;3.17;;
32080;SDS011;18593;51.426;7.030;2023-12-28T09:31:46;12.57;;;2.63;;
32080;SDS011;18593;51.426;7.030;2023-12-28T09:34:16;11.05;;;3.05;;
32080;SDS011;18593;51.426;7.030;2023-12-28T09:36:44;9.40;;;2.22;;
32080;SDS011;18593;51.426;7.030;2023-12-28T09:39:12;17.45;;;3.30;;
32080;SDS011;18593;51.426;7.030;2023-12-28T09:41:40;7.55;;;2.08;;
32080;SDS011;18593;51.426;7.030;2023-12-28T09:44:12;9.20;;;2.55;;
32080;SDS011;18593;51.426;7.030;2023-12-28T09:46:41;7.50;;;1.95;;
32080;SDS011;18593;51.426;7.030;2023-12-28T09:49:10;19.77;;;3.13;;
32080;SDS011;18593;51.426;7.030;2023-12-28T09:51:39;8.55;;;2.20;;
32080;SDS011;18593;51.426;7.030;2023-12-28T09:54:07;12.85;;;2.88;;
32080;SDS011;18593;51.426;7.030;2023-12-28T09:56:37;11.70;;;2.77;;
32080;SDS011;18593;51.426;7.030;2023-12-28T09:59:06;11.90;;;2.72;;
32080;SDS011;18593;51.426;7.030;2023-12-28T10:01:34;14.32;;;2.85;;
32080;SDS011;18593;51.426;7.030;2023-12-28T10:04:01;12.00;;;2.60;;
32080;SDS011;18593;51.426;7.030;2023-12-28T10:06:30;14.13;;;2.78;;
32080;SDS011;18593;51.426;7.030;2023-12-28T10:08:58;9.52;;;2.58;;
32080;SDS011;18593;51.426;7.030;2023-12-28T10:11:26;14.73;;;2.38;;
32080;SDS011;18593;51.426;7.030;2023-12-28T10:14:03;11.23;;;2.78;;
32080;SDS011;18593;51.426;7.030;2023-12-28T10:16:32;9.50;;;2.72;;
32080;SDS011;18593;51.426;7.030;2023-12-28T10:19:01;11.32;;;2.50;;
32080;SDS011;18593;51.426;7.030;2023-12-28T10:21:29;15.73;;;2.80;;
32080;SDS011;18593;51.426;7.030;2023-12-28T10:23:58;12.45;;;2.42;;
32080;SDS011;18593;51.426;7.030;2023-12-28T10:26:29;15.13;;;3.40;;
32080;SDS011;18593;51.426;7.030;2023-12-28T10:28:59;11.85;;;2.95;;
32080;SDS011;18593;51.426;7.030;2023-12-28T10:31:27;12.77;;;2.67;;
32080;SDS011;18593;51.426;7.030;2023-12-28T10:33:57;13.20;;;2.83;;
32080;SDS011;18593;51.426;7.030;2023-12-28T10:36:27;12.07;;;2.75;;
32080;SDS011;18593;51.426;7.030;2023-12-28T10:38:55;12.25;;;2.53;;
32080;SDS011;18593;51.426;7.030;2023-12-28T10:41:29;14.00;;;2.60;;
32080;SDS011;18593;51.426;7.030;2023-12-28T10:44:02;12.82;;;2.90;;
32080;SDS011;18593;51.426;7.030;2023-12-28T10:46:31;12.02;;;2.95;;
32080;SDS011;18593;51.426;7.030;2023-12-28T10:49:09;13.20;;;2.10;;
32080;SDS011;18593;51.426;7.030;2023-12-28T10:51:42;17.02;;;3.58;;
32080;SDS011;18593;51.426;7.030;2023-12-28T10:54:18;12.73;;;2.92;;
32080;SDS011;18593;51.426;7.030;2023-12-28T10:56:59;14.02;;;3.30;;
32080;SDS011;18593;51.426;7.030;2023-12-28T10:59:39;12.00;;;2.55;;
32080;SDS011;18593;51.426;7.030;2023-12-28T11:02:16;10.85;;;2.42;;
32080;SDS011;18593;51.426;7.030;2023-12-28T11:04:48;14.63;;;3.00;;
32080;SDS011;18593;51.426;7.030;2023-12-28T11:07:18;13.55;;;2.30;;
32080;SDS011;18593;51.426;7.030;2023-12-28T11:09:48;14.07;;;2.47;;
32080;SDS011;18593;51.426;7.030;2023-12-28T11:12:17;10.13;;;3.08;;
32080;SDS011;18593;51.426;7.030;2023-12-28T11:14:46;9.65;;;2.30;;
32080;SDS011;18593;51.426;7.030;2023-12-28T11:17:16;12.70;;;2.22;;
32080;SDS011;18593;51.426;7.030;2023-12-28T11:19:44;17.40;;;3.28;;
32080;SDS011;18593;51.426;7.030;2023-12-28T11:22:13;15.20;;;2.10;;
32080;SDS011;18593;51.426;7.030;2023-12-28T11:24:41;11.20;;;2.72;;
32080;SDS011;18593;51.426;7.030;2023-12-28T11:27:11;11.63;;;2.47;;
32080;SDS011;18593;51.426;7.030;2023-12-28T11:29:38;17.52;;;2.50;;
32080;SDS011;18593;51.426;7.030;2023-12-28T11:32:09;14.23;;;2.38;;
32080;SDS011;18593;51.426;7.030;2023-12-28T11:34:37;13.02;;;2.50;;
32080;SDS011;18593;51.426;7.030;2023-12-28T11:37:06;14.88;;;2.90;;
32080;SDS011;18593;51.426;7.030;2023-12-28T11:39:41;13.02;;;2.58;;
32080;SDS011;18593;51.426;7.030;2023-12-28T11:42:11;13.20;;;2.83;;
32080;SDS011;18593;51.426;7.030;2023-12-28T11:44:45;15.80;;;3.15;;
32080;SDS011;18593;51.426;7.030;2023-12-28T11:47:15;9.38;;;1.88;;
32080;SDS011;18593;51.426;7.030;2023-12-28T11:49:48;13.90;;;2.97;;
32080;SDS011;18593;51.426;7.030;2023-12-28T11:52:24;10.75;;;2.30;;
32080;SDS011;18593;51.426;7.030;2023-12-28T11:54:53;9.52;;;2.58;;
32080;SDS011;18593;51.426;7.030;2023-12-28T11:57:23;17.40;;;2.50;;
32080;SDS011;18593;51.426;7.030;2023-12-28T11:59:52;11.43;;;2.22;;
32080;SDS011;18593;51.426;7.030;2023-12-28T12:02:26;13.73;;;2.55;;
32080;SDS011;18593;51.426;7.030;2023-12-28T12:04:54;12.80;;;2.55;;
32080;SDS011;18593;51.426;7.030;2023-12-28T12:07:23;11.88;;;2.15;;
32080;SDS011;18593;51.426;7.030;2023-12-28T12:09:55;13.38;;;2.20;;
32080;SDS011;18593;51.426;7.030;2023-12-28T12:12:24;10.48;;;2.53;;
32080;SDS011;18593;51.426;7.030;2023-12-28T12:14:52;14.23;;;2.13;;
32080;SDS011;18593;51.426;7.030;2023-12-28T12:17:22;9.32;;;2.35;;
32080;SDS011;18593;51.426;7.030;2023-12-28T12:19:50;14.18;;;2.95;;
32080;SDS011;18593;51.426;7.030;2023-12-28T12:22:23;10.63;;;2.45;;
32080;SDS011;18593;51.426;7.030;2023-12-28T12:24:52;12.60;;;2.53;;
32080;SDS011;18593;51.426;7.030;2023-12-28T12:27:22;15.40;;;3.03;;
32080;SDS011;18593;51.426;7.030;2023-12-28T12:29:53;14.50;;;2.25;;
32080;SDS011;18593;51.426;7.030;2023-12-28T12:32:20;16.80;;;2.92;;
32080;SDS011;18593;51.426;7.030;2023-12-28T12:34:49;13.80;;;2.90;;
32080;SDS011;18593;51.426;7.030;2023-12-28T12:37:18;11.73;;;2.92;;
32080;SDS011;18593;51.426;7.030;2023-12-28T12:39:46;13.88;;;2.40;;
32080;SDS011;18593;51.426;7.030;2023-12-28T12:42:14;14.18;;;2.40;;
32080;SDS011;18593;51.426;7.030;2023-12-28T12:44:44;12.38;;;2.35;;
32080;SDS011;18593;51.426;7.030;2023-12-28T12:47:12;19.48;;;2.38;;
32080;SDS011;18593;51.426;7.030;2023-12-28T12:49:40;14.10;;;2.60;;
32080;SDS011;18593;51.426;7.030;2023-12-28T12:52:10;14.10;;;2.60;;
32080;SDS011;18593;51.426;7.030;2023-12-28T12:54:41;10.10;;;2.13;;
32080;SDS011;18593;51.426;7.030;2023-12-28T12:57:09;8.07;;;2.10;;
32080;SDS011;18593;51.426;7.030;2023-12-28T12:59:38;10.40;;;2.40;;
32080;SDS011;18593;51.426;7.030;2023-12-28T13:02:09;15.70;;;2.85;;
32080;SDS011;18593;51.426;7.030;2023-12-28T13:04:38;12.18;;;2.67;;
32080;SDS011;18593;51.426;7.030;2023-12-28T13:07:06;12.60;;;2.90;;
32080;SDS011;18593;51.426;7.030;2023-12-28T13:09:34;13.07;;;2.63;;
32080;SDS011;18593;51.426;7.030;2023-12-28T13:12:02;16.80;;;2.58;;
32080;SDS011;18593;51.426;7.030;2023-12-28T13:14:31;12.75;;;2.38;;
32080;SDS011;18593;51.426;7.030;2023-12-28T13:16:59;17.48;;;3.55;;
32080;SDS011;18593;51.426;7.030;2023-12-28T13:19:28;14.73;;;3.63;;
32080;SDS011;18593;51.426;7.030;2023-12-28T13:21:56;10.60;;;2.08;;
32080;SDS011;18593;51.426;7.030;2023-12-28T13:24:24;11.27;;;2.30;;
32080;SDS011;18593;51.426;7.030;2023-12-28T13:26:52;10.80;;;2.30;;
32080;SDS011;18593;51.426;7.030;2023-12-28T13:29:19;9.88;;;2.10;;
32080;SDS011;18593;51.426;7.030;2023-12-28T13:31:47;14.90;;;2.38;;
32080;SDS011;18593;51.426;7.030;2023-12-28T13:34:16;9.05;;;2.63;;
32080;SDS011;18593;51.426;7.030;2023-12-28T13:36:48;13.73;;;2.63;;
32080;SDS011;18593;51.426;7.030;2023-12-28T13:39:15;11.55;;;2.67;;
32080;SDS011;18593;51.426;7.030;2023-12-28T13:41:42;9.90;;;2.55;;
32080;SDS011;18593;51.426;7.030;2023-12-28T13:44:12;9.27;;;1.85;;
32080;SDS011;18593;51.426;7.030;2023-12-28T13:46:40;10.55;;;2.53;;
32080;SDS011;18593;51.426;7.030;2023-12-28T13:49:08;11.77;;;2.65;;
32080;SDS011;18593;51.426;7.030;2023-12-28T13:51:37;11.30;;;2.20;;
32080;SDS011;18593;51.426;7.030;2023-12-28T13:54:06;10.45;;;2.03;;
32080;SDS011;18593;51.426;7.030;2023-12-28T13:56:35;14.77;;;2.27;;
32080;SDS011;18593;51.426;7.030;2023-12-28T13:59:03;15.60;;;2.72;;
32080;SDS011;18593;51.426;7.030;2023-12-28T14:01:31;10.48;;;2.33;;
32080;SDS011;18593;51.426;7.030;2023-12-28T14:04:04;15.38;;;3.15;;
32080;SDS011;18593;51.426;7.030;2023-12-28T14:06:32;10.88;;;2.10;;
32080;SDS011;18593;51.426;7.030;2023-12-28T14:09:00;11.60;;;2.55;;
32080;SDS011;18593;51.426;7.030;2023-12-28T14:11:29;10.90;;;2.40;;
32080;SDS011;18593;51.426;7.030;2023-12-28T14:13:57;11.88;;;2.00;;
32080;SDS011;18593;51.426;7.030;2023-12-28T14:16:24;10.45;;;2.03;;
32080;SDS011;18593;51.426;7.030;2023-12-28T14:18:52;10.02;;;2.38;;
32080;SDS011;18593;51.426;7.030;2023-12-28T14:21:21;9.10;;;2.28;;
32080;SDS011;18593;51.426;7.030;2023-12-28T14:23:49;16.00;;;2.20;;
32080;SDS011;18593;51.426;7.030;2023-12-28T14:26:18;10.82;;;2.33;;
32080;SDS011;18593;51.426;7.030;2023-12-28T14:28:50;12.05;;;2.28;;
32080;SDS011;18593;51.426;7.030;2023-12-28T14:31:17;12.40;;;2.28;;
32080;SDS011;18593;51.426;7.030;2023-12-28T14:33:45;11.20;;;2.10;;
32080;SDS011;18593;51.426;7.030;2023-12-28T14:36:17;8.20;;;2.00;;
32080;SDS011;18593;51.426;7.030;2023-12-28T14:38:52;8.65;;;1.85;;
32080;SDS011;18593;51.426;7.030;2023-12-28T14:41:20;10.50;;;2.40;;
32080;SDS011;18593;51.426;7.030;2023-12-28T14:43:49;13.73;;;2.80;;
32080;SDS011;18593;51.426;7.030;2023-12-28T14:46:17;11.10;;;2.20;;
32080;SDS011;18593;51.426;7.030;2023-12-28T14:48:45;9.55;;;2.28;;
32080;SDS011;18593;51.426;7.030;2023-12-28T14:51:13;10.13;;;2.20;;
32080;SDS011;18593;51.426;7.030;2023-12-28T14:53:39;12.57;;;2.42;;